Shepherd, Montana
Current Conditions -  °F | °C
As of 1:00 AM on Wednesday 26 Nov 2014 (Local Time) from KBIL Reporting Station
Light Snow Light Snow  
Wind Chill: 20°   Ceiling: 300
Heat Index: 29°   Visibility: 1.5mi
Dew Point: 27°   Wind: 9mph
Humidity: 92%   Direction: 240°WSW
Pressure: 30.18"   Gusts: NA
Location:  45.94°N, 108.34°W
Report Text: KBIL 260800Z 24008KT 1 1/2SM -SN BR BKN003 OVC024 M02/M03 A3018 RMK AO2 P0000 T10171028 $
Loading
Personal Weather Stations






























Interactive Weather Map New forecast layout! Learn more

10-Day Weather Forecast

Advertisements
Track Severe Weather on mobile